createdAt,value
2019-03-28T00:00:39.991Z,5.37
2019-03-28T00:03:08.133Z,5.10
2019-03-28T00:05:36.417Z,5.53
2019-03-28T00:08:04.606Z,5.43
2019-03-28T00:10:32.817Z,5.27
2019-03-28T00:13:01.045Z,5.57
2019-03-28T00:15:29.175Z,5.43
2019-03-28T00:17:57.352Z,5.00
2019-03-28T00:20:25.477Z,5.33
2019-03-28T00:22:59.405Z,5.27
2019-03-28T00:25:27.567Z,5.30
2019-03-28T00:27:55.689Z,5.00
2019-03-28T00:30:23.958Z,5.43
2019-03-28T00:32:52.399Z,4.93
2019-03-28T00:35:20.719Z,4.30
2019-03-28T00:37:48.819Z,5.20
2019-03-28T00:40:16.996Z,5.33
2019-03-28T00:42:45.175Z,5.03
2019-03-28T00:45:14.371Z,5.67
2019-03-28T00:47:42.503Z,5.30
2019-03-28T00:50:11.659Z,5.47
2019-03-28T00:52:39.787Z,5.87
2019-03-28T00:55:07.924Z,5.93
2019-03-28T00:57:36.064Z,5.20
2019-03-28T01:00:05.267Z,4.70
2019-03-28T01:02:33.350Z,5.13
2019-03-28T01:05:01.605Z,5.00
2019-03-28T01:07:29.748Z,5.57
2019-03-28T01:09:57.942Z,4.90
2019-03-28T01:12:26.210Z,5.17
2019-03-28T01:14:54.406Z,5.77
2019-03-28T01:17:22.695Z,5.67
2019-03-28T01:19:50.849Z,6.33
2019-03-28T01:22:18.996Z,5.90
2019-03-28T01:24:47.185Z,5.67
2019-03-28T01:27:15.317Z,5.60
2019-03-28T01:29:43.498Z,5.50
2019-03-28T01:32:11.628Z,5.33
2019-03-28T01:34:39.808Z,5.50
2019-03-28T01:37:08.016Z,5.90
2019-03-28T01:39:36.238Z,6.20
2019-03-28T01:42:04.395Z,6.23
2019-03-28T01:44:32.664Z,5.77
2019-03-28T01:47:00.876Z,5.43
2019-03-28T01:49:28.992Z,5.73
2019-03-28T01:51:57.319Z,5.87
2019-03-28T01:54:25.484Z,6.40
2019-03-28T01:56:53.651Z,6.07
2019-03-28T01:59:22.020Z,6.30
2019-03-28T02:01:50.424Z,5.63
2019-03-28T02:04:18.539Z,5.40
2019-03-28T02:06:46.667Z,5.93
2019-03-28T02:09:14.846Z,5.73
2019-03-28T02:11:42.983Z,5.40
2019-03-28T02:14:11.081Z,5.53
2019-03-28T02:16:39.344Z,5.80
2019-03-28T02:19:07.488Z,5.70
2019-03-28T02:21:36.217Z,6.33
2019-03-28T02:24:04.360Z,5.97
2019-03-28T02:26:32.528Z,5.93
2019-03-28T02:29:00.636Z,5.80
2019-03-28T02:31:28.953Z,5.57
2019-03-28T02:33:57.136Z,5.83
2019-03-28T02:36:25.258Z,6.37
2019-03-28T02:38:53.357Z,5.43
2019-03-28T02:41:21.716Z,6.03
2019-03-28T02:43:49.919Z,6.00
2019-03-28T02:46:18.021Z,6.03
2019-03-28T02:48:46.314Z,6.40
2019-03-28T02:51:14.477Z,6.17
2019-03-28T02:53:42.686Z,6.50
2019-03-28T02:56:10.863Z,6.63
2019-03-28T02:58:39.170Z,7.10
2019-03-28T03:01:07.273Z,6.33
2019-03-28T03:03:35.669Z,6.10
2019-03-28T03:06:03.934Z,6.33
2019-03-28T03:08:32.083Z,6.30
2019-03-28T03:11:00.255Z,6.47
2019-03-28T03:13:28.416Z,6.33
2019-03-28T03:15:56.871Z,5.90
2019-03-28T03:18:25.314Z,5.77
2019-03-28T03:20:53.685Z,6.70
2019-03-28T03:23:21.780Z,5.93
2019-03-28T03:25:49.946Z,6.23
2019-03-28T03:28:18.139Z,6.10
2019-03-28T03:30:46.599Z,6.43
2019-03-28T03:33:15.045Z,5.90
2019-03-28T03:35:43.150Z,6.07
2019-03-28T03:38:11.298Z,6.03
2019-03-28T03:40:39.636Z,6.00
2019-03-28T03:43:07.813Z,5.87
2019-03-28T03:45:36.036Z,9.07
2019-03-28T03:48:04.132Z,12.57
2019-03-28T03:50:32.375Z,9.37
2019-03-28T03:53:00.504Z,6.67
2019-03-28T03:55:28.597Z,6.77
2019-03-28T03:58:13.692Z,6.50
2019-03-28T04:00:34.328Z,6.03
2019-03-28T04:03:03.220Z,6.27
2019-03-28T04:05:31.586Z,6.53
2019-03-28T04:08:00.134Z,5.90
2019-03-28T04:10:28.517Z,6.37
2019-03-28T04:12:56.727Z,6.00
2019-03-28T04:15:24.843Z,6.00
2019-03-28T04:17:53.002Z,5.57
2019-03-28T04:20:21.161Z,6.40
2019-03-28T04:22:49.307Z,5.87
2019-03-28T04:25:17.472Z,5.93
2019-03-28T04:27:46.764Z,5.40
2019-03-28T04:30:15.143Z,5.70
2019-03-28T04:32:43.273Z,5.80
2019-03-28T04:35:11.460Z,5.30
2019-03-28T04:37:39.688Z,5.53
2019-03-28T04:40:08.533Z,5.30
2019-03-28T04:42:37.141Z,5.60
2019-03-28T04:45:06.377Z,5.13
2019-03-28T04:47:34.632Z,5.47
2019-03-28T04:50:03.089Z,5.20
2019-03-28T04:52:32.060Z,5.23
2019-03-28T04:55:00.439Z,5.37
2019-03-28T04:57:29.145Z,5.20
2019-03-28T04:59:57.878Z,5.33
2019-03-28T05:02:26.110Z,6.13
2019-03-28T05:04:54.322Z,5.73
2019-03-28T05:07:22.594Z,6.10
2019-03-28T05:09:50.807Z,5.93
2019-03-28T05:12:18.921Z,5.10
2019-03-28T05:14:47.127Z,5.40
2019-03-28T05:17:15.313Z,5.53
2019-03-28T05:19:43.454Z,5.17
2019-03-28T05:22:11.685Z,5.87
2019-03-28T05:24:39.841Z,5.17
2019-03-28T05:27:07.947Z,5.97
2019-03-28T05:29:36.158Z,6.17
2019-03-28T05:32:04.448Z,4.80
2019-03-28T05:34:32.679Z,5.63
2019-03-28T05:37:00.803Z,5.17
2019-03-28T05:39:28.980Z,5.93
2019-03-28T05:41:57.189Z,5.53
2019-03-28T05:44:25.445Z,6.17
2019-03-28T05:46:53.679Z,5.93
2019-03-28T05:49:21.763Z,6.20
2019-03-28T05:51:50.304Z,6.27
2019-03-28T05:54:18.593Z,6.13
2019-03-28T05:56:46.770Z,6.60
2019-03-28T05:59:15.028Z,5.93
2019-03-28T06:01:43.182Z,5.37
2019-03-28T06:04:11.401Z,5.77
2019-03-28T06:06:39.484Z,5.40
2019-03-28T06:09:07.829Z,6.27
2019-03-28T06:11:36.064Z,6.17
2019-03-28T06:14:04.249Z,5.57
2019-03-28T06:16:32.465Z,6.23
2019-03-28T06:19:00.623Z,6.27
2019-03-28T06:21:28.842Z,5.50
2019-03-28T06:23:57.028Z,14.20
2019-03-28T06:26:25.136Z,5.10
2019-03-28T06:28:53.294Z,6.20
2019-03-28T06:31:21.506Z,6.10
2019-03-28T06:33:49.681Z,7.07
2019-03-28T06:36:17.940Z,5.77
2019-03-28T06:38:46.057Z,6.03
2019-03-28T06:41:14.261Z,5.60
2019-03-28T06:43:42.608Z,6.17
2019-03-28T06:46:10.806Z,5.30
2019-03-28T06:48:38.939Z,5.87
2019-03-28T06:51:07.134Z,5.77
2019-03-28T06:53:35.270Z,5.83
2019-03-28T06:56:03.526Z,6.07
2019-03-28T06:58:31.646Z,6.87
2019-03-28T07:00:59.854Z,6.60
2019-03-28T07:03:27.978Z,6.17
2019-03-28T07:05:56.250Z,5.73
2019-03-28T07:08:25.350Z,6.57
2019-03-28T07:10:53.573Z,6.00
2019-03-28T07:13:21.669Z,6.07
2019-03-28T07:15:49.911Z,6.23
2019-03-28T07:18:18.006Z,8.03
2019-03-28T07:20:47.863Z,8.97
2019-03-28T07:23:16.090Z,8.17
2019-03-28T07:25:44.463Z,8.00
2019-03-28T07:46:15.097Z,7.23
2019-03-28T07:48:43.470Z,7.63
2019-03-28T07:51:11.758Z,7.63
2019-03-28T07:53:40.266Z,7.90
2019-03-28T07:56:14.471Z,7.93
2019-03-28T07:58:44.236Z,8.00
2019-03-28T08:01:12.694Z,7.43
2019-03-28T08:03:41.231Z,7.67
2019-03-28T08:06:12.774Z,7.63
2019-03-28T08:08:56.258Z,7.27
2019-03-28T08:11:22.253Z,7.60
2019-03-28T08:13:50.529Z,7.27
2019-03-28T08:16:20.697Z,7.83
2019-03-28T08:18:48.915Z,7.40
2019-03-28T08:21:17.060Z,6.63
2019-03-28T08:23:45.172Z,7.53
2019-03-28T08:26:13.500Z,7.00
2019-03-28T08:29:11.355Z,6.47
2019-03-28T08:31:42.380Z,7.23
2019-03-28T08:34:10.640Z,7.93
2019-03-28T08:36:39.129Z,8.37
2019-03-28T08:39:07.220Z,8.83
2019-03-28T08:41:35.384Z,8.67
2019-03-28T08:44:03.485Z,7.43
2019-03-28T08:46:31.669Z,8.60
2019-03-28T08:48:59.769Z,7.73
2019-03-28T08:51:27.917Z,8.57
2019-03-28T08:53:56.015Z,8.73
2019-03-28T08:56:24.140Z,8.23
2019-03-28T08:58:52.361Z,8.50
2019-03-28T09:04:08.522Z,6.53
2019-03-28T09:06:36.644Z,6.70
2019-03-28T09:09:08.114Z,7.57
2019-03-28T09:11:36.321Z,7.90
2019-03-28T09:14:04.549Z,7.30
2019-03-28T09:16:32.654Z,8.07
2019-03-28T09:21:46.726Z,8.40
2019-03-28T09:24:14.896Z,8.20
2019-03-28T09:26:43.012Z,6.97
2019-03-28T09:29:11.152Z,6.53
2019-03-28T09:31:39.245Z,8.77
2019-03-28T09:34:26.535Z,8.30
2019-03-28T09:36:54.637Z,7.60
2019-03-28T09:39:24.846Z,7.87
2019-03-28T09:41:52.755Z,8.87
2019-03-28T09:44:20.838Z,8.60
2019-03-28T09:46:48.993Z,7.47
2019-03-28T09:49:17.109Z,6.27
2019-03-28T09:51:45.265Z,7.50
2019-03-28T09:54:13.492Z,6.73
2019-03-28T09:56:41.671Z,7.07
2019-03-28T09:59:09.728Z,7.17
2019-03-28T10:01:37.848Z,7.30
2019-03-28T10:04:06.620Z,6.97
2019-03-28T10:06:34.839Z,6.60
2019-03-28T10:09:04.629Z,6.87
2019-03-28T10:11:32.731Z,6.20
2019-03-28T10:14:00.866Z,7.00
2019-03-28T10:16:29.034Z,7.33
2019-03-28T10:18:57.179Z,7.23
2019-03-28T10:21:25.339Z,6.13
2019-03-28T10:23:53.525Z,6.50
2019-03-28T10:26:21.666Z,6.13
2019-03-28T10:28:49.745Z,7.00
2019-03-28T10:31:17.875Z,6.70
2019-03-28T10:33:45.961Z,6.93
2019-03-28T10:36:14.035Z,6.37
2019-03-28T10:38:42.138Z,6.80
2019-03-28T10:41:10.244Z,6.67
2019-03-28T10:43:38.316Z,6.90
2019-03-28T10:46:06.401Z,7.77
2019-03-28T10:48:34.624Z,7.23
2019-03-28T10:51:02.743Z,6.80
2019-03-28T10:53:30.880Z,5.97
2019-03-28T10:55:58.991Z,6.70
2019-03-28T10:58:27.121Z,6.10
2019-03-28T11:00:56.434Z,5.97
2019-03-28T11:03:24.674Z,6.07
2019-03-28T11:05:52.915Z,6.60
2019-03-28T11:08:20.991Z,5.73
2019-03-28T11:10:49.202Z,5.83
2019-03-28T11:13:17.273Z,5.73
2019-03-28T11:15:45.365Z,5.47
2019-03-28T11:18:13.877Z,5.53
2019-03-28T11:20:42.024Z,5.40
2019-03-28T11:23:10.196Z,5.10
2019-03-28T11:25:38.366Z,5.90
2019-03-28T11:28:06.600Z,4.50
2019-03-28T11:30:34.645Z,5.03
2019-03-28T11:33:06.213Z,19.27
2019-03-28T11:35:32.868Z,5.77
2019-03-28T11:38:01.041Z,5.23
2019-03-28T11:40:29.204Z,4.80
2019-03-28T11:42:57.288Z,4.53
2019-03-28T11:45:27.000Z,4.53
2019-03-28T11:47:55.357Z,4.57
2019-03-28T11:50:23.501Z,4.07
2019-03-28T11:52:51.604Z,4.10
2019-03-28T11:55:19.672Z,4.47
2019-03-28T11:57:47.844Z,4.50
2019-03-28T12:00:17.280Z,4.33
2019-03-28T12:02:45.428Z,3.90
2019-03-28T12:05:13.550Z,4.40
2019-03-28T12:07:41.694Z,3.50
2019-03-28T12:10:12.001Z,3.87
2019-03-28T12:12:40.108Z,3.50
2019-03-28T12:15:08.731Z,3.83
2019-03-28T12:17:36.866Z,3.80
2019-03-28T12:20:05.856Z,3.30
2019-03-28T12:22:34.027Z,3.87
2019-03-28T12:25:02.174Z,3.40
2019-03-28T12:27:30.277Z,3.90
2019-03-28T12:29:58.370Z,3.83
2019-03-28T12:32:26.471Z,3.20
2019-03-28T12:34:54.621Z,2.90
2019-03-28T12:37:22.753Z,3.90
2019-03-28T12:39:50.888Z,3.87
2019-03-28T12:42:19.052Z,3.47
2019-03-28T12:44:56.949Z,3.77
2019-03-28T12:47:17.201Z,3.50
2019-03-28T12:49:45.301Z,3.23
2019-03-28T12:52:13.380Z,3.43
2019-03-28T12:54:44.088Z,4.40
2019-03-28T12:57:14.234Z,4.23
2019-03-28T12:59:41.295Z,4.43
2019-03-28T13:02:09.425Z,4.23
2019-03-28T13:04:37.614Z,3.87
2019-03-28T13:07:06.313Z,4.40
2019-03-28T13:10:07.051Z,4.57
2019-03-28T13:12:35.134Z,4.50
2019-03-28T13:15:03.876Z,4.43
2019-03-28T13:17:32.047Z,4.40
2019-03-28T13:20:00.385Z,3.93
2019-03-28T13:22:28.613Z,3.63
2019-03-28T13:24:57.030Z,3.70
2019-03-28T13:27:26.344Z,4.37
2019-03-28T13:29:55.158Z,4.30
2019-03-28T13:32:23.285Z,4.07
2019-03-28T13:34:54.313Z,4.10
2019-03-28T13:37:32.876Z,3.87
2019-03-28T13:40:01.116Z,3.63
2019-03-28T14:13:43.475Z,2.50
2019-03-28T14:16:18.865Z,2.73
2019-03-28T14:19:11.658Z,2.73
2019-03-28T14:21:50.937Z,2.50
2019-03-28T14:24:19.271Z,2.80
2019-03-28T14:26:49.700Z,2.90
2019-03-28T14:29:17.892Z,2.83
2019-03-28T14:31:56.179Z,3.10
2019-03-28T14:35:14.572Z,2.60
2019-03-28T14:37:42.807Z,2.90
2019-03-28T14:40:11.364Z,2.73
2019-03-28T14:42:40.799Z,2.80
2019-03-28T14:45:09.081Z,2.53
2019-03-28T14:47:37.124Z,2.70
2019-03-28T14:50:07.027Z,3.13
2019-03-28T14:52:38.196Z,2.77
2019-03-28T14:59:32.041Z,2.87
2019-03-28T15:01:50.334Z,2.87
2019-03-28T15:04:18.698Z,2.80
2019-03-28T15:06:46.901Z,3.20
2019-03-28T15:09:19.789Z,2.60
2019-03-28T15:11:48.442Z,2.93
2019-03-28T15:14:16.637Z,2.60
2019-03-28T15:16:57.815Z,2.77
2019-03-28T15:19:26.447Z,2.80
2019-03-28T15:21:54.607Z,2.70
2019-03-28T15:24:22.786Z,2.70
2019-03-28T15:26:50.953Z,2.27
2019-03-28T15:29:19.250Z,2.60
2019-03-28T15:31:47.431Z,2.30
2019-03-28T15:34:15.651Z,2.43
2019-03-28T15:36:43.847Z,2.30
2019-03-28T15:39:12.002Z,2.67
2019-03-28T15:41:40.373Z,2.50
2019-03-28T15:44:08.533Z,2.83
2019-03-28T15:46:36.661Z,2.60
2019-03-28T15:49:04.838Z,2.43
2019-03-28T15:51:32.975Z,3.03
2019-03-28T15:54:01.109Z,3.27
2019-03-28T15:56:29.198Z,3.23
2019-03-28T15:58:57.397Z,3.27
2019-03-28T16:01:25.567Z,2.37
2019-03-28T16:03:53.670Z,2.23
2019-03-28T16:06:23.980Z,2.07
2019-03-28T16:08:52.256Z,2.00
2019-03-28T16:11:28.976Z,2.60
2019-03-28T16:13:54.512Z,2.40
2019-03-28T16:16:22.645Z,2.20
2019-03-28T16:18:50.879Z,2.70
2019-03-28T16:21:19.461Z,2.50
2019-03-28T16:23:47.930Z,2.70
2019-03-28T16:26:16.253Z,2.40
2019-03-28T16:28:44.461Z,2.20
2019-03-28T16:31:12.983Z,1.80
2019-03-28T16:33:41.183Z,2.03
2019-03-28T16:36:09.687Z,1.77
2019-03-28T16:38:38.322Z,1.90
2019-03-28T16:41:06.850Z,2.70
2019-03-28T16:44:06.132Z,2.20
2019-03-28T16:46:34.463Z,2.47
2019-03-28T16:49:02.747Z,2.30
2019-03-28T16:51:34.813Z,2.00
2019-03-28T16:54:07.961Z,2.33
2019-03-28T16:56:38.357Z,2.50
2019-03-28T16:59:06.614Z,2.70
2019-03-28T17:01:34.998Z,2.87
2019-03-28T17:04:04.518Z,2.97
2019-03-28T17:06:33.731Z,2.43
2019-03-28T17:09:03.821Z,2.43
2019-03-28T17:11:31.922Z,1.90
2019-03-28T17:14:05.283Z,2.00
2019-03-28T17:16:36.552Z,2.00
2019-03-28T17:20:14.962Z,2.03
2019-03-28T17:30:07.220Z,1.90
2019-03-28T17:32:36.740Z,3.20
2019-03-28T17:35:05.996Z,5.23
2019-03-28T17:37:58.972Z,4.07
2019-03-28T17:40:36.388Z,3.13
2019-03-28T17:43:05.690Z,2.27
2019-03-28T17:45:34.031Z,2.17
2019-03-28T17:48:23.313Z,2.10
2019-03-28T17:50:51.768Z,2.37
2019-03-28T17:53:24.077Z,2.07
2019-03-28T17:55:52.548Z,2.27
2019-03-28T17:58:23.161Z,2.47
2019-03-28T18:00:57.208Z,2.90
2019-03-28T18:03:37.065Z,2.80
2019-03-28T18:06:28.121Z,3.13
2019-03-28T18:09:15.685Z,2.50
2019-03-28T18:12:12.241Z,2.40
2019-03-28T18:14:49.689Z,3.03
2019-03-28T18:17:13.434Z,2.47
2019-03-28T18:19:41.672Z,3.17
2019-03-28T18:22:09.880Z,2.47
2019-03-28T18:24:38.010Z,2.37
2019-03-28T18:27:47.614Z,2.40
2019-03-28T18:30:21.639Z,2.27
2019-03-28T18:32:52.791Z,2.70
2019-03-28T18:35:21.391Z,2.60
2019-03-28T18:37:49.591Z,2.83
2019-03-28T18:40:17.691Z,3.57
2019-03-28T18:42:50.745Z,3.37
2019-03-28T18:45:28.965Z,3.20
2019-03-28T18:47:57.254Z,3.23
2019-03-28T18:50:25.786Z,3.10
2019-03-28T18:52:54.137Z,3.70
2019-03-28T18:55:22.558Z,3.90
2019-03-28T18:57:51.130Z,3.20
2019-03-28T19:00:26.482Z,3.70
2019-03-28T19:02:55.167Z,3.60
2019-03-28T19:05:23.308Z,3.40
2019-03-28T19:07:51.565Z,3.87
2019-03-28T19:10:20.056Z,6.80
2019-03-28T19:12:48.768Z,5.40
2019-03-28T19:15:17.256Z,3.80
2019-03-28T19:17:45.641Z,3.77
2019-03-28T19:20:14.296Z,4.00
2019-03-28T19:22:42.616Z,6.67
2019-03-28T19:25:11.161Z,4.47
2019-03-28T19:27:39.286Z,18.00
2019-03-28T19:30:09.784Z,8.07
2019-03-28T19:32:38.141Z,5.40
2019-03-28T19:35:07.492Z,3.93
2019-03-28T19:37:36.351Z,4.77
2019-03-28T19:40:06.959Z,4.20
2019-03-28T19:42:35.173Z,3.90
2019-03-28T19:45:03.639Z,4.37
2019-03-28T19:47:31.898Z,4.27
2019-03-28T19:50:00.094Z,3.97
2019-03-28T19:52:29.570Z,4.10
2019-03-28T19:54:57.762Z,4.67
2019-03-28T19:57:26.255Z,3.80
2019-03-28T19:59:58.621Z,4.57
2019-03-28T20:02:27.104Z,4.50
2019-03-28T20:05:01.191Z,4.30
2019-03-28T20:07:30.283Z,4.43
2019-03-28T20:09:58.398Z,4.63
2019-03-28T20:12:29.469Z,5.20
2019-03-28T20:16:02.702Z,5.47
2019-03-28T20:19:34.767Z,4.10
2019-03-28T20:31:43.198Z,5.23
2019-03-28T20:34:11.420Z,6.00
2019-03-28T20:36:43.856Z,4.90
2019-03-28T20:39:11.050Z,4.93
2019-03-28T20:41:42.856Z,4.87
2019-03-28T20:44:19.007Z,4.50
2019-03-28T20:46:47.734Z,3.93
2019-03-28T20:49:15.814Z,6.87
2019-03-28T20:52:15.046Z,4.83
2019-03-28T20:58:00.999Z,5.03
2019-03-28T21:01:36.213Z,5.30
2019-03-28T21:20:04.157Z,5.83
2019-03-28T21:29:02.121Z,5.70
2019-03-28T21:46:19.484Z,4.70
2019-03-28T21:49:46.305Z,3.50
2019-03-28T21:52:14.586Z,3.73
2019-03-28T21:54:42.664Z,4.17
2019-03-28T21:57:10.887Z,3.67
2019-03-28T21:59:38.972Z,3.97
2019-03-28T22:02:07.284Z,4.07
2019-03-28T22:04:35.452Z,4.63
2019-03-28T22:07:03.588Z,4.50
2019-03-28T22:09:31.771Z,4.67
